Time,TemperatureF,DewpointF,PressureIn,WindDirection,WindDirectionDegrees,WindSpeedMPH,WindSpeedGustMPH,Humidity,HourlyPrecipIn,Conditions,Clouds,dailyrainin,SolarRadiationWatts/m^2,SoftwareType,DateUTC
2013-07-24 00:02:00,82.0,72.0,-100.00,South,179,1.0,1.0,73,0.00,,,0.00,0.000000,,2013-07-24 05:02:00,
2013-07-24 00:22:00,80.0,73.0,-100.00,SSE,148,0.0,1.0,80,0.00,,,-99.99,0.000000,,2013-07-24 05:22:00,
2013-07-24 00:33:00,80.0,73.0,-100.00,SSE,148,0.0,1.0,80,0.00,,,-99.99,0.000000,,2013-07-24 05:33:00,
2013-07-24 00:43:00,80.0,73.0,-100.00,SSE,148,0.0,1.0,80,0.00,,,-99.99,0.000000,,2013-07-24 05:43:00,
2013-07-24 00:52:00,80.0,73.0,-100.00,SSE,148,0.0,1.0,80,0.00,,,-99.99,0.000000,,2013-07-24 05:52:00,
2013-07-24 01:01:00,80.0,73.0,-100.00,SSE,148,0.0,1.0,80,0.00,,,-99.99,0.000000,,2013-07-24 06:01:00,
2013-07-24 01:24:00,79.0,73.0,-100.00,South,176,4.0,8.0,82,0.00,,,0.00,0.000000,,2013-07-24 06:24:00,
2013-07-24 01:34:00,79.0,73.0,-100.00,South,176,4.0,8.0,82,0.00,,,0.00,0.000000,,2013-07-24 06:34:00,
2013-07-24 01:43:00,79.0,73.0,-100.00,South,176,4.0,8.0,82,0.00,,,0.00,0.000000,,2013-07-24 06:43:00,
2013-07-24 01:53:00,79.0,73.0,-100.00,South,176,4.0,8.0,82,0.00,,,0.00,0.000000,,2013-07-24 06:53:00,
2013-07-24 02:02:00,79.0,73.0,-100.00,South,176,4.0,8.0,82,0.00,,,0.00,0.000000,,2013-07-24 07:02:00,
2013-07-24 02:22:00,78.0,72.0,-100.00,South,191,2.0,8.0,81,0.00,,,0.00,0.000000,,2013-07-24 07:22:00,
2013-07-24 02:32:00,78.0,72.0,-100.00,South,191,2.0,8.0,81,0.00,,,0.00,0.000000,,2013-07-24 07:32:00,
2013-07-24 02:43:00,78.0,72.0,-100.00,South,191,2.0,8.0,81,0.00,,,0.00,0.000000,,2013-07-24 07:43:00,
2013-07-24 02:53:00,78.0,72.0,-100.00,South,191,2.0,8.0,81,0.00,,,0.00,0.000000,,2013-07-24 07:53:00,
2013-07-24 03:02:00,78.0,72.0,-100.00,South,191,2.0,8.0,81,0.00,,,0.00,0.000000,,2013-07-24 08:02:00,
2013-07-24 03:22:00,76.0,72.0,-100.00,South,174,2.0,4.0,87,0.00,,,0.00,0.000000,,2013-07-24 08:22:00,
2013-07-24 03:32:00,76.0,72.0,-100.00,South,174,2.0,4.0,87,0.00,,,0.00,0.000000,,2013-07-24 08:32:00,
2013-07-24 03:43:00,76.0,72.0,-100.00,South,174,2.0,4.0,87,0.00,,,0.00,0.000000,,2013-07-24 08:43:00,
2013-07-24 03:52:00,76.0,72.0,-100.00,South,174,2.0,4.0,87,0.00,,,0.00,0.000000,,2013-07-24 08:52:00,
2013-07-24 04:02:00,76.0,72.0,-100.00,South,174,2.0,4.0,87,0.00,,,0.00,0.000000,,2013-07-24 09:02:00,
2013-07-24 04:22:00,75.0,72.0,-100.00,South,182,3.0,5.0,90,0.00,,,0.00,0.000000,,2013-07-24 09:22:00,
2013-07-24 04:32:00,75.0,72.0,-100.00,South,182,3.0,5.0,90,0.00,,,0.00,0.000000,,2013-07-24 09:32:00,
2013-07-24 04:43:00,75.0,72.0,-100.00,South,182,3.0,5.0,90,0.00,,,0.00,0.000000,,2013-07-24 09:43:00,
2013-07-24 04:53:00,75.0,72.0,-100.00,South,182,3.0,5.0,90,0.00,,,0.00,0.000000,,2013-07-24 09:53:00,
2013-07-24 05:02:00,75.0,72.0,-100.00,South,182,3.0,5.0,90,0.00,,,0.00,0.000000,,2013-07-24 10:02:00,
2013-07-24 05:22:00,75.0,72.0,-100.00,SSE,151,3.0,6.0,90,0.00,,,0.00,0.000000,,2013-07-24 10:22:00,
2013-07-24 05:33:00,75.0,72.0,-100.00,SSE,151,3.0,6.0,90,0.00,,,0.00,0.000000,,2013-07-24 10:33:00,
2013-07-24 05:43:00,75.0,72.0,-100.00,SSE,151,3.0,6.0,90,0.00,,,0.00,0.000000,,2013-07-24 10:43:00,
2013-07-24 05:53:00,75.0,72.0,-100.00,SSE,151,3.0,6.0,90,0.00,,,0.00,0.000000,,2013-07-24 10:53:00,
2013-07-24 06:02:00,75.0,72.0,-100.00,SSE,151,3.0,6.0,90,0.00,,,0.00,0.000000,,2013-07-24 11:02:00,
2013-07-24 06:22:00,74.0,72.0,-100.00,WNW,283,0.0,6.0,93,0.00,,,0.00,0.000000,,2013-07-24 11:22:00,
2013-07-24 06:32:00,74.0,72.0,-100.00,WNW,283,0.0,6.0,93,0.00,,,0.00,0.000000,,2013-07-24 11:32:00,
2013-07-24 06:44:00,74.0,72.0,-100.00,WNW,283,0.0,6.0,93,0.00,,,0.00,0.000000,,2013-07-24 11:44:00,
2013-07-24 06:52:00,74.0,72.0,-100.00,WNW,283,0.0,6.0,93,0.00,,,0.00,0.000000,,2013-07-24 11:52:00,
2013-07-24 07:02:00,74.0,72.0,-100.00,WNW,283,0.0,6.0,93,0.00,,,0.00,0.000000,,2013-07-24 12:02:00,
2013-07-24 07:22:00,75.0,73.0,-100.00,South,178,2.0,5.0,93,0.00,,,0.00,5.000000,,2013-07-24 12:22:00,
2013-07-24 07:32:00,75.0,73.0,-100.00,South,178,2.0,5.0,93,0.00,,,0.00,5.000000,,2013-07-24 12:32:00,
2013-07-24 07:42:00,75.0,73.0,-100.00,South,178,2.0,5.0,93,0.00,,,0.00,5.000000,,2013-07-24 12:42:00,
2013-07-24 07:52:00,75.0,73.0,-100.00,South,178,2.0,5.0,93,0.00,,,0.00,5.000000,,2013-07-24 12:52:00,
2013-07-24 08:02:00,75.0,73.0,-100.00,South,178,2.0,5.0,93,0.00,,,0.00,5.000000,,2013-07-24 13:02:00,
2013-07-24 08:22:00,76.0,73.0,-100.00,South,187,2.0,5.0,91,0.00,,,0.00,68.000000,,2013-07-24 13:22:00,
2013-07-24 08:32:00,76.0,73.0,-100.00,South,187,2.0,5.0,91,0.00,,,0.00,68.000000,,2013-07-24 13:32:00,
2013-07-24 08:43:00,76.0,73.0,-100.00,South,187,2.0,5.0,91,0.00,,,0.00,68.000000,,2013-07-24 13:43:00,
2013-07-24 08:53:00,76.0,73.0,-100.00,South,187,2.0,5.0,91,0.00,,,0.00,68.000000,,2013-07-24 13:53:00,
2013-07-24 09:02:00,76.0,73.0,-100.00,South,187,2.0,5.0,91,0.00,,,0.00,68.000000,,2013-07-24 14:02:00,
2013-07-24 09:22:00,79.0,73.0,-100.00,NW,322,6.0,11.0,83,0.00,,,0.00,213.000000,,2013-07-24 14:22:00,
2013-07-24 09:32:00,79.0,73.0,-100.00,NW,322,6.0,11.0,83,0.00,,,0.00,213.000000,,2013-07-24 14:32:00,
2013-07-24 09:43:00,79.0,73.0,-100.00,NW,322,6.0,11.0,83,0.00,,,0.00,213.000000,,2013-07-24 14:43:00,
2013-07-24 09:55:00,79.0,73.0,-100.00,NW,322,6.0,11.0,83,0.00,,,0.00,213.000000,,2013-07-24 14:55:00,
2013-07-24 10:02:00,79.0,73.0,-100.00,NW,322,6.0,11.0,83,0.00,,,0.00,213.000000,,2013-07-24 15:02:00,
2013-07-24 10:22:00,81.0,74.0,-100.00,NW,323,5.0,10.0,80,0.00,,,0.00,270.000000,,2013-07-24 15:22:00,
2013-07-24 10:33:00,81.0,74.0,-100.00,NW,323,5.0,10.0,80,0.00,,,0.00,270.000000,,2013-07-24 15:33:00,
2013-07-24 10:43:00,81.0,74.0,-100.00,NW,323,5.0,10.0,80,0.00,,,0.00,270.000000,,2013-07-24 15:43:00,
2013-07-24 10:53:00,81.0,74.0,-100.00,NW,323,5.0,10.0,80,0.00,,,0.00,270.000000,,2013-07-24 15:53:00,
2013-07-24 11:02:00,81.0,74.0,-100.00,NW,323,5.0,10.0,80,0.00,,,0.00,270.000000,,2013-07-24 16:02:00,
2013-07-24 11:23:00,85.0,75.0,-100.00,WNW,282,4.0,10.0,72,0.00,,,0.00,564.000000,,2013-07-24 16:23:00,
2013-07-24 11:33:00,85.0,75.0,-100.00,WNW,282,4.0,10.0,72,0.00,,,0.00,564.000000,,2013-07-24 16:33:00,
2013-07-24 11:43:00,85.0,75.0,-100.00,WNW,282,4.0,10.0,72,0.00,,,0.00,564.000000,,2013-07-24 16:43:00,
2013-07-24 11:53:00,85.0,75.0,-100.00,WNW,282,4.0,10.0,72,0.00,,,0.00,564.000000,,2013-07-24 16:53:00,
2013-07-24 12:02:00,85.0,75.0,-100.00,WNW,282,4.0,10.0,72,0.00,,,0.00,564.000000,,2013-07-24 17:02:00,
2013-07-24 12:22:00,88.0,74.0,-100.00,West,277,6.0,10.0,64,0.00,,,0.00,673.000000,,2013-07-24 17:22:00,
2013-07-24 12:33:00,88.0,74.0,-100.00,West,277,6.0,10.0,64,0.00,,,0.00,673.000000,,2013-07-24 17:33:00,
2013-07-24 12:43:00,88.0,74.0,-100.00,West,277,6.0,10.0,64,0.00,,,0.00,673.000000,,2013-07-24 17:43:00,
2013-07-24 12:53:00,88.0,74.0,-100.00,West,277,6.0,10.0,64,0.00,,,0.00,673.000000,,2013-07-24 17:53:00,
2013-07-24 13:02:00,88.0,74.0,-100.00,West,277,6.0,10.0,64,0.00,,,0.00,673.000000,,2013-07-24 18:02:00,
2013-07-24 13:22:00,90.0,73.0,-100.00,WSW,255,5.0,12.0,57,0.00,,,0.00,929.000000,,2013-07-24 18:22:00,
2013-07-24 13:33:00,90.0,73.0,-100.00,WSW,255,5.0,12.0,57,0.00,,,0.00,929.000000,,2013-07-24 18:33:00,
2013-07-24 13:43:00,90.0,73.0,-100.00,WSW,255,5.0,12.0,57,0.00,,,0.00,929.000000,,2013-07-24 18:43:00,
2013-07-24 13:52:00,90.0,73.0,-100.00,WSW,255,5.0,12.0,57,0.00,,,0.00,929.000000,,2013-07-24 18:52:00,
2013-07-24 14:02:00,90.0,73.0,-100.00,WSW,255,5.0,12.0,57,0.00,,,0.00,929.000000,,2013-07-24 19:02:00,
2013-07-24 14:22:00,90.0,71.0,-100.00,WSW,253,6.0,12.0,54,0.00,,,0.00,887.000000,,2013-07-24 19:22:00,
2013-07-24 14:33:00,90.0,71.0,-100.00,WSW,253,6.0,12.0,54,0.00,,,0.00,887.000000,,2013-07-24 19:33:00,
2013-07-24 14:43:00,90.0,71.0,-100.00,WSW,253,6.0,12.0,54,0.00,,,0.00,887.000000,,2013-07-24 19:43:00,
2013-07-24 14:53:00,90.0,71.0,-100.00,WSW,253,6.0,12.0,54,0.00,,,0.00,887.000000,,2013-07-24 19:53:00,
2013-07-24 15:02:00,90.0,71.0,-100.00,WSW,253,6.0,12.0,54,0.00,,,0.00,887.000000,,2013-07-24 20:02:00,
2013-07-24 15:23:00,92.0,73.0,-100.00,SW,216,6.0,12.0,54,0.00,,,0.00,590.000000,,2013-07-24 20:23:00,
2013-07-24 15:33:00,92.0,73.0,-100.00,SW,216,6.0,12.0,54,0.00,,,0.00,590.000000,,2013-07-24 20:33:00,
2013-07-24 15:43:00,92.0,73.0,-100.00,SW,216,6.0,12.0,54,0.00,,,0.00,590.000000,,2013-07-24 20:43:00,
2013-07-24 15:53:00,92.0,73.0,-100.00,SW,216,6.0,12.0,54,0.00,,,0.00,590.000000,,2013-07-24 20:53:00,
2013-07-24 16:02:00,92.0,73.0,-100.00,SW,216,6.0,12.0,54,0.00,,,0.00,590.000000,,2013-07-24 21:02:00,
2013-07-24 16:22:00,93.0,72.0,-100.00,WSW,240,4.0,12.0,50,0.00,,,0.00,634.000000,,2013-07-24 21:22:00,
2013-07-24 16:32:00,93.0,72.0,-100.00,WSW,240,4.0,12.0,50,0.00,,,0.00,634.000000,,2013-07-24 21:32:00,
2013-07-24 16:44:00,93.0,72.0,-100.00,WSW,240,4.0,12.0,50,0.00,,,0.00,634.000000,,2013-07-24 21:44:00,
2013-07-24 16:53:00,93.0,72.0,-100.00,WSW,240,4.0,12.0,50,0.00,,,0.00,634.000000,,2013-07-24 21:53:00,
2013-07-24 17:02:00,93.0,72.0,-100.00,WSW,240,4.0,12.0,50,0.00,,,0.00,634.000000,,2013-07-24 22:02:00,
2013-07-24 17:32:00,94.0,71.0,-100.00,WNW,302,5.0,10.0,48,0.00,,,0.00,454.000000,,2013-07-24 22:32:00,
2013-07-24 17:43:00,94.0,71.0,-100.00,WNW,302,5.0,10.0,48,0.00,,,0.00,454.000000,,2013-07-24 22:43:00,
2013-07-24 17:53:00,94.0,71.0,-100.00,WNW,302,5.0,10.0,48,0.00,,,0.00,454.000000,,2013-07-24 22:53:00,
2013-07-24 18:02:00,94.0,71.0,-100.00,WNW,302,5.0,10.0,48,0.00,,,0.00,454.000000,,2013-07-24 23:02:00,
2013-07-24 18:22:00,96.0,74.0,-100.00,WNW,289,5.0,11.0,49,0.00,,,0.00,438.000000,,2013-07-24 23:22:00,
2013-07-24 18:33:00,96.0,74.0,-100.00,WNW,289,5.0,11.0,49,0.00,,,0.00,438.000000,,2013-07-24 23:33:00,
2013-07-24 18:43:00,96.0,74.0,-100.00,WNW,289,5.0,11.0,49,0.00,,,0.00,438.000000,,2013-07-24 23:43:00,
2013-07-24 18:52:00,96.0,74.0,-100.00,WNW,289,5.0,11.0,49,0.00,,,0.00,438.000000,,2013-07-24 23:52:00,
2013-07-24 19:02:00,96.0,74.0,-100.00,WNW,289,5.0,11.0,49,0.00,,,0.00,438.000000,,2013-07-25 00:02:00,
2013-07-24 19:22:00,87.0,67.0,-100.00,NE,46,11.0,19.0,51,-99.99,,,0.00,298.000000,,2013-07-25 00:22:00,
2013-07-24 19:33:00,87.0,67.0,-100.00,NE,46,11.0,19.0,51,-99.99,,,0.00,298.000000,,2013-07-25 00:33:00,
2013-07-24 19:43:00,87.0,67.0,-100.00,NE,46,11.0,19.0,51,-99.99,,,0.00,298.000000,,2013-07-25 00:43:00,
2013-07-24 19:53:00,87.0,67.0,-100.00,NE,46,11.0,19.0,51,-99.99,,,0.00,298.000000,,2013-07-25 00:53:00,
2013-07-24 20:02:00,87.0,67.0,-100.00,NE,46,11.0,19.0,51,-99.99,,,0.00,298.000000,,2013-07-25 01:02:00,
2013-07-24 20:22:00,78.0,75.0,-100.00,ENE,61,4.0,14.0,90,0.14,,,0.14,70.000000,,2013-07-25 01:22:00,
2013-07-24 20:32:00,78.0,75.0,-100.00,ENE,61,4.0,14.0,90,0.14,,,0.14,70.000000,,2013-07-25 01:32:00,
2013-07-24 20:43:00,78.0,75.0,-100.00,ENE,61,4.0,14.0,90,0.14,,,0.14,70.000000,,2013-07-25 01:43:00,
2013-07-24 20:53:00,78.0,75.0,-100.00,ENE,61,4.0,14.0,90,0.14,,,0.14,70.000000,,2013-07-25 01:53:00,
2013-07-24 21:02:00,78.0,75.0,-100.00,ENE,61,4.0,14.0,90,0.14,,,0.14,70.000000,,2013-07-25 02:02:00,
2013-07-24 21:22:00,77.0,75.0,-100.00,ESE,116,0.0,4.0,94,0.00,,,0.14,8.000000,,2013-07-25 02:22:00,
2013-07-24 21:33:00,77.0,75.0,-100.00,ESE,116,0.0,4.0,94,0.00,,,0.14,8.000000,,2013-07-25 02:33:00,
2013-07-24 21:43:00,77.0,75.0,-100.00,ESE,116,0.0,4.0,94,0.00,,,0.14,8.000000,,2013-07-25 02:43:00,
2013-07-24 21:53:00,77.0,75.0,-100.00,ESE,116,0.0,4.0,94,0.00,,,0.14,8.000000,,2013-07-25 02:53:00,
2013-07-24 22:02:00,77.0,75.0,-100.00,ESE,116,0.0,4.0,94,0.00,,,0.14,8.000000,,2013-07-25 03:02:00,
2013-07-24 22:24:00,76.0,75.0,-100.00,South,183,0.0,0.0,97,0.00,,,0.14,0.000000,,2013-07-25 03:24:00,
2013-07-24 22:40:00,76.0,75.0,-100.00,South,183,0.0,0.0,97,0.00,,,0.14,0.000000,,2013-07-25 03:40:00,
2013-07-24 22:52:00,76.0,75.0,-100.00,South,183,0.0,0.0,97,0.00,,,0.14,0.000000,,2013-07-25 03:52:00,
2013-07-24 23:02:00,76.0,75.0,-100.00,South,183,0.0,0.0,97,0.00,,,0.14,0.000000,,2013-07-25 04:02:00,
2013-07-24 23:33:00,77.0,76.0,-100.00,NNE,26,2.0,6.0,97,0.00,,,0.14,0.000000,,2013-07-25 04:33:00,
2013-07-24 23:43:00,77.0,76.0,-100.00,NNE,26,2.0,6.0,97,0.00,,,0.14,0.000000,,2013-07-25 04:43:00,
2013-07-24 23:53:00,77.0,76.0,-100.00,NNE,26,2.0,6.0,97,0.00,,,0.14,0.000000,,2013-07-25 04:53:00,